createdAt,value
2018-09-14T00:00:30.532Z,99.99
2018-09-14T00:01:30.508Z,99.99
2018-09-14T00:02:30.802Z,99.99
2018-09-14T00:03:31.242Z,99.99
2018-09-14T00:04:30.444Z,99.99
2018-09-14T00:05:31.243Z,99.99
2018-09-14T00:06:30.366Z,99.99
2018-09-14T00:07:30.398Z,99.99
2018-09-14T00:08:31.242Z,99.99
2018-09-14T00:09:30.295Z,99.99
2018-09-14T00:10:31.245Z,99.99
2018-09-14T00:11:30.233Z,99.99
2018-09-14T00:12:30.252Z,99.99
2018-09-14T00:13:30.293Z,99.99
2018-09-14T00:14:30.155Z,99.99
2018-09-14T00:15:30.127Z,99.99
2018-09-14T00:16:30.108Z,99.99
2018-09-14T00:17:30.090Z,99.99
2018-09-14T00:18:30.123Z,99.99
2018-09-14T00:19:30.745Z,99.99
2018-09-14T00:20:30.744Z,99.99
2018-09-14T00:21:29.967Z,99.99
2018-09-14T00:22:30.301Z,99.99
2018-09-14T00:23:29.957Z,99.99
2018-09-14T00:24:30.752Z,99.99
2018-09-14T00:25:30.744Z,99.99
2018-09-14T00:26:30.743Z,99.99
2018-09-14T00:27:29.815Z,99.99
2018-09-14T00:28:29.827Z,99.99
2018-09-14T00:29:29.803Z,99.99
2018-09-14T00:30:29.726Z,99.99
2018-09-14T00:31:29.695Z,99.99
2018-09-14T00:32:30.245Z,99.99
2018-09-14T00:33:29.655Z,99.99
2018-09-14T00:34:29.661Z,99.99
2018-09-14T00:35:29.592Z,99.99
2018-09-14T00:36:29.563Z,99.99
2018-09-14T00:37:29.535Z,99.99
2018-09-14T00:38:29.562Z,99.99
2018-09-14T00:39:29.809Z,99.99
2018-09-14T00:40:30.249Z,99.99
2018-09-14T00:41:30.249Z,99.99
2018-09-14T00:42:29.404Z,99.99
2018-09-14T00:43:29.375Z,99.99
2018-09-14T00:44:30.304Z,99.99
2018-09-14T00:45:29.374Z,99.99
2018-09-14T00:46:29.302Z,99.99
2018-09-14T00:47:30.249Z,99.99
2018-09-14T00:48:29.245Z,99.99
2018-09-14T00:49:29.309Z,99.99
2018-09-14T00:50:29.746Z,99.99
2018-09-14T00:51:29.163Z,99.99
2018-09-14T00:52:29.747Z,99.99
2018-09-14T00:53:29.114Z,99.99
2018-09-14T00:54:29.129Z,99.99
2018-09-14T00:55:29.315Z,99.99
2018-09-14T00:56:29.769Z,99.99
2018-09-14T00:57:29.007Z,99.99
2018-09-14T00:58:29.749Z,99.99
2018-09-14T00:59:29.748Z,99.99
2018-09-14T01:00:29.295Z,99.99
2018-09-14T01:01:28.942Z,99.99
2018-09-14T01:02:28.875Z,99.99
2018-09-14T01:03:28.847Z,99.99
2018-09-14T01:04:28.868Z,99.99
2018-09-14T01:05:29.763Z,99.99
2018-09-14T01:06:29.320Z,99.99
2018-09-14T01:07:28.747Z,99.99
2018-09-14T01:08:28.716Z,99.99
2018-09-14T01:09:28.691Z,99.99
2018-09-14T01:10:29.251Z,99.99
2018-09-14T01:11:28.681Z,99.99
2018-09-14T01:12:28.730Z,99.99
2018-09-14T01:13:29.252Z,99.99
2018-09-14T01:14:28.596Z,99.99
2018-09-14T01:15:28.805Z,99.99
2018-09-14T01:16:28.505Z,99.99
2018-09-14T01:17:29.250Z,99.99
2018-09-14T01:18:28.816Z,99.99
2018-09-14T01:19:28.424Z,99.99
2018-09-14T01:20:28.401Z,99.99
2018-09-14T01:21:29.254Z,99.99
2018-09-14T01:22:28.347Z,99.99
2018-09-14T01:23:28.810Z,99.99
2018-09-14T01:24:28.297Z,99.99
2018-09-14T01:25:29.255Z,99.99
2018-09-14T01:26:28.243Z,99.99
2018-09-14T01:27:29.160Z,99.99
2018-09-14T01:28:28.187Z,99.99
2018-09-14T01:29:28.163Z,99.99
2018-09-14T01:30:28.754Z,99.99
2018-09-14T01:31:28.320Z,99.99
2018-09-14T01:32:28.757Z,99.99
2018-09-14T01:33:28.058Z,99.99
2018-09-14T01:34:28.088Z,99.99
2018-09-14T01:35:28.755Z,99.99
2018-09-14T01:36:28.753Z,99.99
2018-09-14T01:37:28.757Z,99.99
2018-09-14T01:38:28.756Z,99.99
2018-09-14T01:39:28.322Z,99.99
2018-09-14T01:40:28.755Z,99.99
2018-09-14T01:41:28.760Z,99.99
2018-09-14T01:42:27.825Z,99.99
2018-09-14T01:43:28.755Z,99.99
2018-09-14T01:44:28.310Z,99.99
2018-09-14T01:45:27.745Z,99.99
2018-09-14T01:46:27.715Z,99.99
2018-09-14T01:47:27.823Z,99.99
2018-09-14T01:48:27.674Z,99.99
2018-09-14T01:49:28.255Z,99.99
2018-09-14T01:50:27.616Z,99.99
2018-09-14T01:51:27.586Z,99.99
2018-09-14T01:52:27.811Z,99.99
2018-09-14T01:53:27.535Z,99.99
2018-09-14T01:54:27.506Z,99.99
2018-09-14T01:55:27.815Z,99.99
2018-09-14T01:56:27.461Z,99.99
2018-09-14T01:57:28.260Z,99.99
2018-09-14T01:58:27.440Z,99.99
2018-09-14T01:59:27.374Z,99.99
2018-09-14T02:00:27.822Z,99.99
2018-09-14T02:01:27.325Z,99.99
2018-09-14T02:02:28.260Z,99.99
2018-09-14T02:03:28.280Z,99.99
2018-09-14T02:04:27.765Z,99.99
2018-09-14T02:05:27.261Z,99.99
2018-09-14T02:06:27.760Z,99.99
2018-09-14T02:07:27.771Z,99.99
2018-09-14T02:08:27.761Z,99.99
2018-09-14T02:09:27.196Z,99.99
2018-09-14T02:10:27.761Z,99.99
2018-09-14T02:11:27.317Z,99.99
2018-09-14T02:12:27.033Z,99.99
2018-09-14T02:13:27.760Z,99.99
2018-09-14T02:14:27.421Z,99.99
2018-09-14T02:15:26.961Z,99.99
2018-09-14T02:16:26.932Z,99.99
2018-09-14T02:17:26.903Z,99.99
2018-09-14T02:18:27.766Z,99.99
2018-09-14T02:19:26.898Z,99.99
2018-09-14T02:20:27.763Z,99.99
2018-09-14T02:21:26.851Z,99.99
2018-09-14T02:22:26.769Z,99.99
2018-09-14T02:23:26.746Z,99.99
2018-09-14T02:24:27.265Z,99.99
2018-09-14T02:25:26.846Z,99.99
2018-09-14T02:26:26.720Z,99.99
2018-09-14T02:27:26.816Z,99.99
2018-09-14T02:28:26.653Z,99.99
2018-09-14T02:29:27.266Z,99.99
2018-09-14T02:30:26.834Z,99.99
2018-09-14T02:31:27.266Z,99.99
2018-09-14T02:32:26.507Z,99.99
2018-09-14T02:33:26.476Z,99.99
2018-09-14T02:34:26.462Z,99.99
2018-09-14T02:35:26.818Z,99.99
2018-09-14T02:36:26.439Z,99.99
2018-09-14T02:37:26.513Z,99.99
2018-09-14T02:38:27.292Z,99.99
2018-09-14T02:39:27.269Z,99.99
2018-09-14T02:40:26.294Z,99.99
2018-09-14T02:41:26.328Z,99.99
2018-09-14T02:42:26.328Z,99.99
2018-09-14T02:43:26.223Z,99.99
2018-09-14T02:44:26.198Z,99.99
2018-09-14T02:45:26.186Z,99.99
2018-09-14T02:46:26.136Z,99.99
2018-09-14T02:47:26.873Z,99.99
2018-09-14T02:48:26.089Z,99.99
2018-09-14T02:49:26.777Z,99.99
2018-09-14T02:50:26.031Z,99.99
2018-09-14T02:51:26.777Z,99.99
2018-09-14T02:52:26.034Z,99.99
2018-09-14T02:53:25.944Z,99.99
2018-09-14T02:54:26.778Z,99.99
2018-09-14T02:55:25.890Z,99.99
2018-09-14T02:56:26.774Z,99.99
2018-09-14T02:57:25.889Z,99.99
2018-09-14T02:58:26.780Z,99.99
2018-09-14T02:59:25.781Z,99.99
2018-09-14T03:00:26.284Z,99.99
2018-09-14T03:01:25.731Z,99.99
2018-09-14T03:02:25.763Z,99.99
2018-09-14T03:03:25.682Z,99.99
2018-09-14T03:04:26.272Z,99.99
2018-09-14T03:05:26.271Z,99.99
2018-09-14T03:06:25.605Z,99.99
2018-09-14T03:07:25.612Z,99.99
2018-09-14T03:08:25.832Z,99.99
2018-09-14T03:09:25.529Z,99.99
2018-09-14T03:10:25.486Z,99.99
2018-09-14T03:11:25.466Z,99.99
2018-09-14T03:12:25.438Z,99.99
2018-09-14T03:13:25.840Z,99.99
2018-09-14T03:14:26.282Z,99.99
2018-09-14T03:15:25.357Z,99.99
2018-09-14T03:16:26.286Z,99.99
2018-09-14T03:17:26.275Z,99.99
2018-09-14T03:18:25.332Z,99.99
2018-09-14T03:19:25.355Z,99.99
2018-09-14T03:20:25.221Z,99.99
2018-09-14T03:21:25.193Z,99.99
2018-09-14T03:22:25.774Z,99.99
2018-09-14T03:23:25.139Z,99.99
2018-09-14T03:24:25.342Z,99.99
2018-09-14T03:25:25.798Z,99.99
2018-09-14T03:26:25.777Z,99.99
2018-09-14T03:27:25.032Z,99.99
2018-09-14T03:28:25.782Z,99.99
2018-09-14T03:29:25.346Z,99.99
2018-09-14T03:30:25.777Z,99.99
2018-09-14T03:31:25.781Z,99.99
2018-09-14T03:32:24.912Z,99.99
2018-09-14T03:33:25.779Z,99.99
2018-09-14T03:34:24.899Z,99.99
2018-09-14T03:35:26.685Z,99.99
2018-09-14T03:36:24.796Z,99.99
2018-09-14T03:37:24.785Z,99.99
2018-09-14T03:38:25.284Z,99.99
2018-09-14T03:39:24.879Z,99.99
2018-09-14T03:40:25.278Z,99.99
2018-09-14T03:41:24.656Z,99.99
2018-09-14T03:42:24.673Z,99.99
2018-09-14T03:43:24.619Z,99.99
2018-09-14T03:44:24.579Z,99.99
2018-09-14T03:45:24.552Z,99.99
2018-09-14T03:46:24.569Z,99.99
2018-09-14T03:47:24.500Z,99.99
2018-09-14T03:48:24.470Z,99.99
2018-09-14T03:49:25.281Z,99.99
2018-09-14T03:50:25.282Z,99.99
2018-09-14T03:51:24.838Z,99.99
2018-09-14T03:52:25.286Z,99.99
2018-09-14T03:53:25.284Z,99.99
2018-09-14T03:54:24.315Z,99.99
2018-09-14T03:55:24.787Z,99.99
2018-09-14T03:56:24.351Z,99.99
2018-09-14T03:57:24.266Z,99.99
2018-09-14T03:58:24.782Z,99.99
2018-09-14T03:59:26.786Z,99.99
2018-09-14T04:00:24.784Z,99.99
2018-09-14T04:01:24.358Z,99.99
2018-09-14T04:02:24.789Z,99.99
2018-09-14T04:03:24.791Z,99.99
2018-09-14T04:04:24.046Z,99.99
2018-09-14T04:05:24.017Z,99.99
2018-09-14T04:06:24.037Z,99.99
2018-09-14T04:07:24.784Z,99.99
2018-09-14T04:08:23.940Z,99.99
2018-09-14T04:09:24.339Z,99.99
2018-09-14T04:10:23.887Z,99.99
2018-09-14T04:11:24.787Z,99.99
2018-09-14T04:12:26.785Z,99.99
2018-09-14T04:13:24.785Z,99.99
2018-09-14T04:14:23.841Z,99.99
2018-09-14T04:15:23.758Z,99.99
2018-09-14T04:16:23.725Z,99.99
2018-09-14T04:17:23.740Z,99.99
2018-09-14T04:18:23.677Z,99.99
2018-09-14T04:19:23.690Z,99.99
2018-09-14T04:20:24.288Z,99.99
2018-09-14T04:21:23.595Z,99.99
2018-09-14T04:22:24.288Z,99.99
2018-09-14T04:23:23.559Z,99.99
2018-09-14T04:24:23.572Z,99.99
2018-09-14T04:25:23.489Z,99.99
2018-09-14T04:26:23.465Z,99.99
2018-09-14T04:27:23.433Z,99.99
2018-09-14T04:28:24.289Z,99.99
2018-09-14T04:29:23.853Z,99.99
2018-09-14T04:30:24.290Z,99.99
2018-09-14T04:31:23.329Z,99.99
2018-09-14T04:32:23.306Z,99.99
2018-09-14T04:33:23.793Z,99.99
2018-09-14T04:34:23.291Z,99.99
2018-09-14T04:35:23.222Z,99.99
2018-09-14T04:36:23.792Z,99.99
2018-09-14T04:37:23.172Z,99.99
2018-09-14T04:38:23.253Z,99.99
2018-09-14T04:39:23.120Z,99.99
2018-09-14T04:40:23.091Z,99.99
2018-09-14T04:41:23.060Z,99.99
2018-09-14T04:42:23.040Z,99.99
2018-09-14T04:43:23.064Z,99.99
2018-09-14T04:44:22.984Z,99.99
2018-09-14T04:45:23.000Z,99.99
2018-09-14T04:46:23.795Z,99.99
2018-09-14T04:47:23.797Z,99.99
2018-09-14T04:48:23.039Z,99.99
2018-09-14T04:49:23.349Z,99.99
2018-09-14T04:50:22.824Z,99.99
2018-09-14T04:51:22.918Z,99.99
2018-09-14T04:52:23.319Z,99.99
2018-09-14T04:53:22.746Z,99.99
2018-09-14T04:54:22.766Z,99.99
2018-09-14T04:55:23.301Z,99.99
2018-09-14T04:56:22.855Z,99.99
2018-09-14T04:57:22.751Z,99.99
2018-09-14T04:58:22.614Z,99.99
2018-09-14T04:59:23.297Z,99.99
2018-09-14T05:00:22.563Z,99.99
2018-09-14T05:01:22.532Z,99.99
2018-09-14T05:02:22.548Z,99.99
2018-09-14T05:03:22.548Z,99.99
2018-09-14T05:04:23.296Z,99.99
2018-09-14T05:05:22.429Z,99.99
2018-09-14T05:06:22.410Z,99.99
2018-09-14T05:07:22.860Z,99.99
2018-09-14T05:08:22.899Z,99.99
2018-09-14T05:09:23.415Z,99.99
2018-09-14T05:10:22.298Z,99.99
2018-09-14T05:11:22.272Z,99.99
2018-09-14T05:12:22.812Z,99.99
2018-09-14T05:13:22.352Z,99.99
2018-09-14T05:14:22.807Z,99.99
2018-09-14T05:15:22.163Z,99.99
2018-09-14T05:16:22.136Z,99.99
2018-09-14T05:17:22.796Z,99.99
2018-09-14T05:18:22.367Z,99.99
2018-09-14T05:19:22.058Z,99.99
2018-09-14T05:20:22.799Z,99.99
2018-09-14T05:21:22.804Z,99.99
2018-09-14T05:22:21.983Z,99.99
2018-09-14T05:23:22.358Z,99.99
2018-09-14T05:24:22.820Z,99.99
2018-09-14T05:25:22.800Z,99.99
2018-09-14T05:26:21.921Z,99.99
2018-09-14T05:27:21.864Z,99.99
2018-09-14T05:28:21.824Z,99.99
2018-09-14T05:29:21.792Z,99.99
2018-09-14T05:30:22.309Z,99.99
2018-09-14T05:31:21.862Z,99.99
2018-09-14T05:32:22.302Z,99.99
2018-09-14T05:33:22.304Z,99.99
2018-09-14T05:34:21.663Z,99.99
2018-09-14T05:35:22.305Z,99.99
2018-09-14T05:36:21.652Z,99.99
2018-09-14T05:37:22.305Z,99.99
2018-09-14T05:38:22.384Z,99.99
2018-09-14T05:39:22.305Z,99.99
2018-09-14T05:40:22.306Z,99.99
2018-09-14T05:41:21.530Z,99.99
2018-09-14T05:42:21.498Z,99.99
2018-09-14T05:43:22.308Z,99.99
2018-09-14T05:44:22.305Z,99.99
2018-09-14T05:45:22.309Z,99.99
2018-09-14T05:46:21.867Z,99.99
2018-09-14T05:47:22.308Z,99.99
2018-09-14T05:48:21.306Z,99.99
2018-09-14T05:49:21.284Z,99.99
2018-09-14T05:50:21.804Z,99.99
2018-09-14T05:51:21.265Z,99.99
2018-09-14T05:52:21.198Z,99.99
2018-09-14T05:53:21.806Z,99.99
2018-09-14T05:54:21.851Z,99.99
2018-09-14T05:55:21.120Z,99.99
2018-09-14T05:56:21.375Z,99.99
2018-09-14T05:57:21.067Z,99.99
2018-09-14T05:58:21.059Z,99.99
2018-09-14T05:59:21.061Z,99.99
2018-09-14T06:00:20.990Z,99.99
2018-09-14T06:01:20.966Z,99.99
2018-09-14T06:02:20.941Z,99.99
2018-09-14T06:03:20.966Z,99.99
2018-09-14T06:04:20.893Z,99.99
2018-09-14T06:05:21.811Z,99.99
2018-09-14T06:06:20.839Z,99.99
2018-09-14T06:07:20.812Z,99.99
2018-09-14T06:08:20.834Z,99.99
2018-09-14T06:09:20.772Z,99.99
2018-09-14T06:10:20.740Z,99.99
2018-09-14T06:11:20.715Z,99.99
2018-09-14T06:12:20.863Z,99.99
2018-09-14T06:13:20.661Z,99.99
2018-09-14T06:14:21.312Z,99.99
2018-09-14T06:15:20.626Z,99.99
2018-09-14T06:16:20.589Z,99.99
2018-09-14T06:17:20.609Z,99.99
2018-09-14T06:18:20.531Z,99.99
2018-09-14T06:19:20.527Z,99.99
2018-09-14T06:20:20.483Z,99.99
2018-09-14T06:21:20.466Z,99.99
2018-09-14T06:22:20.895Z,99.99
2018-09-14T06:23:20.407Z,99.99
2018-09-14T06:24:20.389Z,99.99
2018-09-14T06:25:20.355Z,99.99
2018-09-14T06:26:20.333Z,99.99
2018-09-14T06:27:20.352Z,99.99
2018-09-14T06:28:20.283Z,99.99
2018-09-14T06:29:20.291Z,99.99
2018-09-14T06:30:20.311Z,99.99
2018-09-14T06:31:20.206Z,99.99
2018-09-14T06:32:20.180Z,99.99
2018-09-14T06:33:20.159Z,99.99
2018-09-14T06:34:20.131Z,99.99
2018-09-14T06:35:20.147Z,99.99
2018-09-14T06:36:20.081Z,99.99
2018-09-14T06:37:20.055Z,99.99
2018-09-14T06:38:20.046Z,99.99
2018-09-14T06:39:20.006Z,99.99
2018-09-14T06:40:20.033Z,99.99
2018-09-14T06:41:19.977Z,99.99
2018-09-14T06:42:19.975Z,99.99
2018-09-14T06:43:19.905Z,99.99
2018-09-14T06:44:19.882Z,99.99
2018-09-14T06:45:19.913Z,99.99
2018-09-14T06:46:19.857Z,99.99
2018-09-14T06:47:19.806Z,99.99
2018-09-14T06:48:19.780Z,99.99
2018-09-14T06:49:20.323Z,99.99
2018-09-14T06:50:19.781Z,99.99
2018-09-14T06:51:20.324Z,99.99
2018-09-14T06:52:19.724Z,99.99
2018-09-14T06:53:19.911Z,99.99
2018-09-14T06:54:19.635Z,99.99
2018-09-14T06:55:19.607Z,99.99
2018-09-14T06:56:19.582Z,99.99
2018-09-14T06:57:19.602Z,99.99
2018-09-14T06:58:19.541Z,99.99
2018-09-14T06:59:19.508Z,99.99
2018-09-14T07:00:19.499Z,99.99
2018-09-14T07:01:19.459Z,99.99
2018-09-14T07:02:19.505Z,99.99
2018-09-14T07:03:19.441Z,99.99
2018-09-14T07:04:19.386Z,99.99
2018-09-14T07:05:19.455Z,99.99
2018-09-14T07:06:19.352Z,99.99
2018-09-14T07:07:19.372Z,99.99
2018-09-14T07:08:19.285Z,99.99
2018-09-14T07:09:19.258Z,99.99
2018-09-14T07:10:19.240Z,99.99
2018-09-14T07:11:19.213Z,99.99
2018-09-14T07:12:19.231Z,99.99
2018-09-14T07:13:19.230Z,99.99
2018-09-14T07:14:19.135Z,99.99
2018-09-14T07:15:19.111Z,99.99
2018-09-14T07:16:19.091Z,99.99
2018-09-14T07:17:19.392Z,99.99
2018-09-14T07:18:19.043Z,99.99
2018-09-14T07:19:19.013Z,99.99
2018-09-14T07:20:18.995Z,99.99
2018-09-14T07:21:18.971Z,99.99
2018-09-14T07:22:19.047Z,99.99
2018-09-14T07:23:18.915Z,99.99
2018-09-14T07:24:18.971Z,99.99
2018-09-14T07:25:18.868Z,99.99
2018-09-14T07:26:18.884Z,99.99
2018-09-14T07:27:18.888Z,99.99
2018-09-14T07:28:18.848Z,99.99
2018-09-14T07:29:18.787Z,99.99
2018-09-14T07:30:18.775Z,99.99
2018-09-14T07:31:18.755Z,99.99
2018-09-14T07:32:18.724Z,99.99
2018-09-14T07:33:18.751Z,99.87
2018-09-14T07:34:18.698Z,99.99
2018-09-14T07:35:18.633Z,99.87
2018-09-14T07:36:18.650Z,99.96
2018-09-14T07:37:18.580Z,99.99
2018-09-14T07:38:18.594Z,99.68
2018-09-14T07:39:18.571Z,99.05
2018-09-14T07:40:18.558Z,98.77
2018-09-14T07:41:18.483Z,98.72
2018-09-14T07:42:18.473Z,98.29
2018-09-14T07:43:18.438Z,98.29
2018-09-14T07:44:18.414Z,98.48
2018-09-14T07:45:18.445Z,98.29
2018-09-14T07:46:18.364Z,98.58
2018-09-14T07:47:18.351Z,98.48
2018-09-14T07:48:18.408Z,97.91
2018-09-14T07:49:18.351Z,98.00
2018-09-14T07:50:18.275Z,97.61
2018-09-14T07:51:18.249Z,97.42
2018-09-14T07:52:18.231Z,96.18
2018-09-14T07:53:18.202Z,96.08
2018-09-14T07:54:18.222Z,96.85
2018-09-14T07:55:18.204Z,97.14
2018-09-14T07:56:18.131Z,97.52
2018-09-14T07:57:18.110Z,97.04
2018-09-14T07:58:18.085Z,96.27
2018-09-14T07:59:18.115Z,96.56
2018-09-14T08:00:18.037Z,96.27
2018-09-14T08:01:18.889Z,95.55
2018-09-14T08:02:18.042Z,94.69
2018-09-14T08:03:18.014Z,94.59
2018-09-14T08:04:17.949Z,94.40
2018-09-14T08:05:17.922Z,94.59
2018-09-14T08:06:17.972Z,93.34
2018-09-14T08:07:17.877Z,93.25
2018-09-14T08:08:17.899Z,93.05
2018-09-14T08:09:17.874Z,93.44
2018-09-14T08:10:17.812Z,93.34
2018-09-14T08:11:17.785Z,93.10
2018-09-14T08:12:17.763Z,91.56
2018-09-14T08:13:17.794Z,90.22
2018-09-14T08:14:17.720Z,90.80
2018-09-14T08:15:17.697Z,90.60
2018-09-14T08:16:17.674Z,90.60
2018-09-14T08:17:17.649Z,90.45
2018-09-14T08:18:17.946Z,90.07
2018-09-14T08:19:17.608Z,90.07
2018-09-14T08:20:17.672Z,90.36
2018-09-14T08:21:17.658Z,89.11
2018-09-14T08:22:17.585Z,89.69
2018-09-14T08:23:17.516Z,90.45
2018-09-14T08:24:17.498Z,89.98
2018-09-14T08:25:17.475Z,89.98
2018-09-14T08:26:17.454Z,90.22
2018-09-14T08:27:17.543Z,90.80
2018-09-14T08:28:17.406Z,90.12
2018-09-14T08:29:17.419Z,90.70
2018-09-14T08:30:18.371Z,91.28
2018-09-14T08:31:17.348Z,91.42
2018-09-14T08:32:17.403Z,90.65
2018-09-14T08:33:17.344Z,90.36
2018-09-14T08:34:17.281Z,90.07
2018-09-14T08:35:17.254Z,89.40
2018-09-14T08:36:17.248Z,89.50
2018-09-14T08:37:17.213Z,89.59
2018-09-14T08:38:17.230Z,89.59
2018-09-14T08:39:17.161Z,89.69
2018-09-14T08:40:17.140Z,89.78
2018-09-14T08:41:17.120Z,89.64
2018-09-14T08:42:17.100Z,88.77
2018-09-14T08:43:17.121Z,88.39
2018-09-14T08:44:17.056Z,88.00
2018-09-14T08:45:17.031Z,88.29
2018-09-14T08:46:17.047Z,87.62
2018-09-14T08:47:16.989Z,87.42
2018-09-14T08:48:17.010Z,86.56
2018-09-14T08:49:16.953Z,86.94
2018-09-14T08:50:16.927Z,87.13
2018-09-14T08:51:16.906Z,86.75
2018-09-14T08:52:16.880Z,86.75
2018-09-14T08:53:16.919Z,85.98
2018-09-14T08:54:16.834Z,86.08
2018-09-14T08:55:16.818Z,85.64
2018-09-14T08:56:16.804Z,84.97
2018-09-14T08:57:16.772Z,84.83
2018-09-14T08:58:16.811Z,85.40
2018-09-14T08:59:16.728Z,85.60
2018-09-14T09:00:16.707Z,86.46
2018-09-14T09:01:16.687Z,85.98
2018-09-14T09:02:16.664Z,84.92
2018-09-14T09:03:16.686Z,83.86
2018-09-14T09:04:16.668Z,83.48
2018-09-14T09:05:16.644Z,83.09
2018-09-14T09:06:16.649Z,82.75
2018-09-14T09:07:16.625Z,82.56
2018-09-14T09:08:16.538Z,82.52
2018-09-14T09:09:16.619Z,82.71
2018-09-14T09:10:16.553Z,83.29
2018-09-14T09:11:16.532Z,83.39
2018-09-14T09:12:16.481Z,83.86
2018-09-14T09:13:16.426Z,83.29
2018-09-14T09:14:16.408Z,84.25
2018-09-14T09:15:16.429Z,83.77
2018-09-14T09:16:16.431Z,83.62
2018-09-14T09:17:16.345Z,83.72
2018-09-14T09:18:16.321Z,83.14
2018-09-14T09:19:16.361Z,82.89
2018-09-14T09:20:16.279Z,80.58
2018-09-14T09:21:16.388Z,79.52
2018-09-14T09:22:16.271Z,78.46
2018-09-14T09:23:16.246Z,78.27
2018-09-14T09:24:16.218Z,78.75
2018-09-14T09:25:16.235Z,78.65
2018-09-14T09:26:16.221Z,78.27
2018-09-14T09:27:16.143Z,78.11
2018-09-14T09:28:16.130Z,78.31
2018-09-14T09:29:16.134Z,78.11
2018-09-14T09:30:16.118Z,76.96
2018-09-14T09:31:16.090Z,76.86
2018-09-14T09:32:16.038Z,76.28
2018-09-14T09:33:16.022Z,76.38
2018-09-14T09:34:16.064Z,75.32
2018-09-14T09:35:15.969Z,76.80
2018-09-14T09:36:15.993Z,75.65
2018-09-14T09:37:15.926Z,75.65
2018-09-14T09:38:15.900Z,75.16
2018-09-14T09:39:15.880Z,74.68
2018-09-14T09:40:15.861Z,75.36
2018-09-14T09:41:15.896Z,74.78
2018-09-14T09:42:15.826Z,74.10
2018-09-14T09:43:15.903Z,74.01
2018-09-14T09:44:15.785Z,74.78
2018-09-14T09:45:15.760Z,74.84
2018-09-14T09:46:15.781Z,74.84
2018-09-14T09:47:15.717Z,75.23
2018-09-14T09:48:15.741Z,75.71
2018-09-14T09:49:15.676Z,76.48
2018-09-14T09:50:15.660Z,76.48
2018-09-14T09:51:15.675Z,75.61
2018-09-14T09:52:15.673Z,76.38
2018-09-14T09:53:15.590Z,76.73
2018-09-14T09:54:15.578Z,76.25
2018-09-14T09:55:15.547Z,75.76
2018-09-14T09:56:15.538Z,75.48
2018-09-14T09:57:15.919Z,75.67
2018-09-14T09:58:15.485Z,75.76
2018-09-14T09:59:15.518Z,75.28
2018-09-14T10:00:15.442Z,75.90
2018-09-14T10:01:15.427Z,76.48
2018-09-14T10:02:15.402Z,75.61
2018-09-14T10:03:15.385Z,75.61
2018-09-14T10:04:15.417Z,75.51
2018-09-14T10:05:15.878Z,75.32
2018-09-14T10:06:15.319Z,75.03
2018-09-14T10:07:15.313Z,74.78
2018-09-14T10:08:15.280Z,74.78
2018-09-14T10:09:15.318Z,74.97
2018-09-14T10:10:15.238Z,73.24
2018-09-14T10:11:15.219Z,73.66
2018-09-14T10:12:15.200Z,73.37
2018-09-14T10:13:15.179Z,71.73
2018-09-14T10:14:15.294Z,71.44
2018-09-14T10:15:15.151Z,71.38
2018-09-14T10:16:15.117Z,71.77
2018-09-14T10:17:15.096Z,71.38
2018-09-14T10:18:15.133Z,72.25
2018-09-14T10:19:15.060Z,71.38
2018-09-14T10:20:15.082Z,70.51
2018-09-14T10:21:15.090Z,70.22
2018-09-14T10:22:14.994Z,69.74
2018-09-14T10:23:14.975Z,69.97
2018-09-14T10:24:14.952Z,69.29
2018-09-14T10:25:14.982Z,69.29
2018-09-14T10:26:14.914Z,68.59
2018-09-14T10:27:14.909Z,68.33
2018-09-14T10:28:14.882Z,67.94
2018-09-14T10:29:14.859Z,68.62
2018-09-14T10:30:14.883Z,67.75
2018-09-14T10:31:14.821Z,67.75
2018-09-14T10:32:14.795Z,68.71
2018-09-14T10:33:14.781Z,68.81
2018-09-14T10:34:14.757Z,67.85
2018-09-14T10:35:14.880Z,67.55
2018-09-14T10:36:14.719Z,67.46
2018-09-14T10:37:14.696Z,66.97
2018-09-14T10:38:14.960Z,67.46
2018-09-14T10:39:14.700Z,68.01
2018-09-14T10:40:15.386Z,68.29
2018-09-14T10:41:14.618Z,69.26
2018-09-14T10:42:14.602Z,69.74
2018-09-14T10:43:14.620Z,68.49
2018-09-14T10:44:14.558Z,68.77
2018-09-14T10:45:14.595Z,68.01
2018-09-14T10:46:14.578Z,67.91
2018-09-14T10:47:14.501Z,67.91
2018-09-14T10:48:14.485Z,67.91
2018-09-14T10:49:14.462Z,67.27
2018-09-14T10:50:14.443Z,67.17
2018-09-14T10:51:14.944Z,66.97
2018-09-14T10:52:14.403Z,67.36
2018-09-14T10:53:14.424Z,66.97
2018-09-14T10:54:14.366Z,67.55
2018-09-14T10:55:14.375Z,66.78
2018-09-14T10:56:14.324Z,66.69
2018-09-14T10:57:14.363Z,66.49
2018-09-14T10:58:14.289Z,65.43
2018-09-14T10:59:14.262Z,65.91
2018-09-14T11:00:14.257Z,65.91
2018-09-14T11:01:14.226Z,65.72
2018-09-14T11:02:14.250Z,64.86
2018-09-14T11:03:14.233Z,65.14
2018-09-14T11:04:14.182Z,65.05
2018-09-14T11:05:14.145Z,65.53
2018-09-14T11:06:14.129Z,65.72
2018-09-14T11:07:14.153Z,66.40
2018-09-14T11:08:14.135Z,66.40
2018-09-14T11:09:14.069Z,66.30
2018-09-14T11:10:14.054Z,66.11
2018-09-14T11:11:14.028Z,66.30
2018-09-14T11:12:14.446Z,66.20
2018-09-14T11:13:14.036Z,66.20
2018-09-14T11:14:14.893Z,65.63
2018-09-14T11:15:13.951Z,65.72
2018-09-14T11:16:14.933Z,66.01
2018-09-14T11:17:13.912Z,66.11
2018-09-14T11:18:13.938Z,66.05
2018-09-14T11:19:13.872Z,65.56
2018-09-14T11:20:14.405Z,66.43
2018-09-14T11:21:13.833Z,66.05
2018-09-14T11:22:13.818Z,65.75
2018-09-14T11:23:13.848Z,66.05
2018-09-14T11:24:13.777Z,65.75
2018-09-14T11:25:13.880Z,64.59
2018-09-14T11:26:13.739Z,64.59
2018-09-14T11:27:14.394Z,64.79
2018-09-14T11:28:13.957Z,63.92
2018-09-14T11:29:13.679Z,63.73
2018-09-14T11:30:13.659Z,63.66
2018-09-14T11:31:13.636Z,62.40
2018-09-14T11:32:14.401Z,61.83
2018-09-14T11:33:13.648Z,61.83
2018-09-14T11:34:14.431Z,61.63
2018-09-14T11:35:13.614Z,61.99
2018-09-14T11:36:13.545Z,62.86
2018-09-14T11:37:13.525Z,62.95
2018-09-14T11:38:13.566Z,62.76
2018-09-14T11:39:13.482Z,63.53
2018-09-14T11:40:13.509Z,63.92
2018-09-14T11:41:13.447Z,63.63
2018-09-14T11:42:13.430Z,63.24
2018-09-14T11:43:13.405Z,62.86
2018-09-14T11:44:13.387Z,63.34
2018-09-14T11:45:13.474Z,64.21
2018-09-14T11:46:13.399Z,63.53
2018-09-14T11:47:13.330Z,64.50
2018-09-14T11:48:13.308Z,63.05
2018-09-14T11:49:13.298Z,63.53
2018-09-14T11:50:13.310Z,62.66
2018-09-14T11:51:13.902Z,62.47
2018-09-14T11:52:13.268Z,63.15
2018-09-14T11:53:13.220Z,63.05
2018-09-14T11:54:13.223Z,63.56
2018-09-14T11:55:13.188Z,62.89
2018-09-14T11:56:13.158Z,62.40
2018-09-14T11:57:13.170Z,62.12
2018-09-14T11:58:13.202Z,61.92
2018-09-14T11:59:13.099Z,61.25
2018-09-14T12:00:13.907Z,61.54
2018-09-14T12:01:13.117Z,61.34
2018-09-14T12:02:13.039Z,61.18
2018-09-14T12:03:13.077Z,62.12
2018-09-14T12:04:13.026Z,63.02
2018-09-14T12:05:12.982Z,61.76
2018-09-14T12:06:12.961Z,61.86
2018-09-14T12:07:12.944Z,63.40
2018-09-14T12:08:12.981Z,61.60
2018-09-14T12:09:12.906Z,60.63
2018-09-14T12:10:12.887Z,60.72
2018-09-14T12:11:12.874Z,60.44
2018-09-14T12:12:12.849Z,59.47
2018-09-14T12:13:12.889Z,59.56
2018-09-14T12:14:12.809Z,59.66
2018-09-14T12:15:12.801Z,59.79
2018-09-14T12:16:12.772Z,59.59
2018-09-14T12:17:12.761Z,59.59
2018-09-14T12:18:12.786Z,59.50
2018-09-14T12:19:12.715Z,59.50
2018-09-14T12:20:12.708Z,60.05
2018-09-14T12:21:12.682Z,60.44
2018-09-14T12:22:12.783Z,60.17
2018-09-14T12:23:12.643Z,60.05
2018-09-14T12:24:13.414Z,60.05
2018-09-14T12:25:12.660Z,59.63
2018-09-14T12:26:12.583Z,59.89
2018-09-14T12:27:12.566Z,60.79
2018-09-14T12:28:12.579Z,60.89
2018-09-14T12:29:12.528Z,60.76
2018-09-14T12:30:12.555Z,61.25
2018-09-14T12:31:12.494Z,61.34
2018-09-14T12:32:12.467Z,60.83
2018-09-14T12:33:12.498Z,61.02
2018-09-14T12:34:12.611Z,62.28
2018-09-14T12:35:12.415Z,62.08
2018-09-14T12:36:12.450Z,62.95
2018-09-14T12:37:12.931Z,61.89
2018-09-14T12:38:12.362Z,62.08
2018-09-14T12:39:12.336Z,61.99
2018-09-14T12:40:12.329Z,61.86
2018-09-14T12:41:12.349Z,62.44
2018-09-14T12:42:12.280Z,62.66
2018-09-14T12:43:12.319Z,62.47
2018-09-14T12:44:12.253Z,61.89
2018-09-14T12:45:12.946Z,62.08
2018-09-14T12:46:12.317Z,61.22
2018-09-14T12:47:12.179Z,61.12
2018-09-14T12:48:12.158Z,61.15
2018-09-14T12:49:12.147Z,61.51
2018-09-14T12:50:12.167Z,61.15
2018-09-14T12:51:12.106Z,61.25
2018-09-14T12:52:12.126Z,61.83